Time;durP1;ratioP1;P1;durP2;ratioP2;P2;SDS_P1;SDS_P2;PMS_P1;PMS_P2;Temp;Humidity;BMP_temperature;BMP_pressure;BME280_temperature;BME280_humidity;BME280_pressure;Samples;Min_cycle;Max_cycle;Signal;HPM_P1;HPM_P2
2024/03/03 00:00:49;;;;;;;22.52;14.02;;;;;;;7.51;100.00;98926.06;4946375;28;20050;-69
2024/03/03 00:03:17;;;;;;;19.75;13.75;;;;;;;7.49;100.00;98922.69;4957518;28;20089;-71
2024/03/03 00:05:46;;;;;;;21.35;14.25;;;;;;;7.47;100.00;98922.75;4972261;28;20058;-70
2024/03/03 00:08:13;;;;;;;23.17;13.52;;;;;;;7.40;100.00;98919.63;4952318;28;20043;-69
2024/03/03 00:10:42;;;;;;;19.95;13.45;;;;;;;7.41;100.00;98920.47;4975132;28;20408;-71
2024/03/03 00:13:10;;;;;;;23.73;14.68;;;;;;;7.37;100.00;98908.44;4951701;28;20063;-71
2024/03/03 00:15:38;;;;;;;23.77;14.48;;;;;;;7.42;100.00;98902.88;4955101;28;20043;-68
2024/03/03 00:18:06;;;;;;;22.83;14.10;;;;;;;7.42;100.00;98914.28;4965256;28;20083;-70
2024/03/03 00:20:35;;;;;;;22.55;14.15;;;;;;;7.39;100.00;98896.88;4945744;28;20607;-71
2024/03/03 00:23:04;;;;;;;20.35;13.40;;;;;;;7.39;100.00;98904.78;4943411;28;20678;-71
2024/03/03 00:25:32;;;;;;;19.47;12.93;;;;;;;7.36;100.00;98897.06;4967127;28;20083;-66
2024/03/03 00:28:00;;;;;;;22.05;13.98;;;;;;;7.35;100.00;98894.50;4958801;28;20477;-71
2024/03/03 00:30:28;;;;;;;21.15;14.15;;;;;;;7.31;100.00;98888.56;4947398;28;20069;-73
2024/03/03 00:32:57;;;;;;;22.95;14.18;;;;;;;7.26;100.00;98884.50;4955245;28;20078;-71
2024/03/03 00:35:25;;;;;;;24.52;14.90;;;;;;;7.29;100.00;98889.59;4949179;28;20044;-71
2024/03/03 00:37:54;;;;;;;24.88;14.63;;;;;;;7.25;100.00;98872.25;4946468;28;20126;-71
2024/03/03 00:40:23;;;;;;;24.30;14.73;;;;;;;7.29;100.00;98887.81;4978308;28;20042;-68
2024/03/03 00:42:52;;;;;;;21.63;13.70;;;;;;;7.24;100.00;98878.50;4990163;28;20050;-69
2024/03/03 00:45:20;;;;;;;22.23;14.90;;;;;;;7.18;100.00;98871.78;4952437;28;20134;-69
2024/03/03 00:47:48;;;;;;;25.63;14.88;;;;;;;7.14;100.00;98875.50;4948835;28;20044;-68
2024/03/03 00:50:16;;;;;;;21.73;14.80;;;;;;;7.17;100.00;98877.97;4965228;28;20070;-69
2024/03/03 00:52:45;;;;;;;22.10;14.80;;;;;;;7.15;100.00;98871.94;4952657;28;20043;-71
2024/03/03 00:55:13;;;;;;;26.58;14.38;;;;;;;7.11;100.00;98865.16;4971330;28;20062;-69
2024/03/03 00:57:42;;;;;;;22.55;14.82;;;;;;;7.08;100.00;98857.47;4948276;28;20130;-71
2024/03/03 01:00:12;;;;;;;25.30;14.95;;;;;;;7.02;100.00;98849.91;4968074;28;20131;-69
2024/03/03 01:02:41;;;;;;;;;;;;;;;7.04;100.00;98848.03;4967688;28;20051;-69
2024/03/03 01:05:11;;;;;;;23.80;14.57;;;;;;;6.99;100.00;98843.03;4966576;28;19922;-69
2024/03/03 01:07:39;;;;;;;23.40;14.18;;;;;;;6.95;100.00;98849.38;4940544;28;20058;-69
2024/03/03 01:10:10;;;;;;;23.80;15.43;;;;;;;6.93;100.00;98845.16;4958986;28;20039;-69
2024/03/03 01:12:38;;;;;;;22.02;14.40;;;;;;;6.90;100.00;98847.97;4974390;28;20507;-69
2024/03/03 01:15:10;;;;;;;23.42;14.63;;;;;;;6.89;100.00;98841.88;4967362;28;20569;-69
2024/03/03 01:17:42;;;;;;;24.60;15.43;;;;;;;6.85;100.00;98842.13;4982955;28;20051;-70
2024/03/03 01:20:11;;;;;;;23.58;14.30;;;;;;;6.85;100.00;98845.59;4984770;28;20523;-71
2024/03/03 01:22:42;;;;;;;25.10;15.85;;;;;;;6.85;100.00;98848.22;4966618;28;20035;-72
2024/03/03 01:25:10;;;;;;;24.13;15.30;;;;;;;6.85;100.00;98842.13;4985357;28;20039;-71
2024/03/03 01:27:38;;;;;;;26.30;15.98;;;;;;;6.82;100.00;98832.59;4967509;28;20054;-69
2024/03/03 01:30:08;;;;;;;24.77;15.23;;;;;;;6.82;100.00;98837.88;4966274;28;20542;-69
2024/03/03 01:32:37;;;;;;;26.42;14.85;;;;;;;6.80;100.00;98834.47;4954624;28;20104;-71
2024/03/03 01:35:05;;;;;;;26.45;16.10;;;;;;;6.76;100.00;98825.06;4974672;28;20058;-69
2024/03/03 01:37:33;;;;;;;27.08;15.35;;;;;;;6.82;100.00;98832.59;4979117;28;20153;-71
2024/03/03 01:40:01;;;;;;;27.85;16.33;;;;;;;6.78;100.00;98822.31;4971848;28;20035;-68
2024/03/03 01:42:29;;;;;;;27.10;16.58;;;;;;;6.81;100.00;98830.06;4972525;28;20507;-71
2024/03/03 01:44:57;;;;;;;26.15;16.17;;;;;;;6.82;100.00;98816.81;4967927;28;20458;-71
2024/03/03 01:47:27;;;;;;;26.83;15.23;;;;;;;6.85;100.00;98810.53;4961154;28;20050;-70
2024/03/03 01:49:57;;;;;;;25.50;15.55;;;;;;;6.83;100.00;98797.47;4972117;28;20057;-71
2024/03/03 01:52:28;;;;;;;25.45;15.23;;;;;;;6.89;100.00;98788.38;4958337;28;20050;-70
2024/03/03 01:54:58;;;;;;;29.85;16.63;;;;;;;7.00;100.00;98801.75;4961346;28;20053;-71
2024/03/03 01:57:26;;;;;;;29.02;16.02;;;;;;;6.98;100.00;98791.31;4963422;28;20058;-71
2024/03/03 01:59:55;;;;;;;27.90;16.73;;;;;;;7.00;100.00;98791.25;4988213;28;20061;-69
2024/03/03 02:02:26;;;;;;;27.98;16.42;;;;;;;7.04;100.00;98785.72;4987582;28;20050;-72
2024/03/03 02:04:58;;;;;;;26.08;15.75;;;;;;;7.07;100.00;98794.38;4966330;28;20568;-69
2024/03/03 02:07:28;;;;;;;27.70;16.00;;;;;;;7.04;100.00;98787.50;4968784;28;20061;-71
2024/03/03 02:10:00;;;;;;;25.70;16.00;;;;;;;7.16;100.00;98781.50;4991564;28;20054;-68
2024/03/03 02:12:28;;;;;;;25.05;15.95;;;;;;;7.26;100.00;98787.06;4968752;28;20046;-71
2024/03/03 02:14:57;;;;;;;25.67;15.88;;;;;;;7.30;100.00;98783.31;4981983;28;20043;-68
2024/03/03 02:17:26;;;;;;;27.00;16.58;;;;;;;7.28;100.00;98783.41;4948930;28;20143;-71
2024/03/03 02:19:55;;;;;;;28.33;16.42;;;;;;;7.27;100.00;98775.59;4984808;28;20050;-70
2024/03/03 02:22:24;;;;;;;28.75;15.68;;;;;;;7.26;100.00;98784.44;4968526;28;20400;-71
2024/03/03 02:24:54;;;;;;;;;;;;;;;7.23;100.00;98796.03;4984148;28;20090;-73
2024/03/03 02:27:23;;;;;;;25.65;15.63;;;;;;;7.18;100.00;98784.91;4963202;28;20040;-70
2024/03/03 02:29:53;;;;;;;24.23;15.05;;;;;;;7.13;100.00;98776.41;4966996;28;20093;-69
2024/03/03 02:32:22;;;;;;;26.65;15.43;;;;;;;7.10;100.00;98767.84;4975738;28;20490;-70
2024/03/03 02:34:50;;;;;;;26.17;15.30;;;;;;;7.04;100.00;98745.38;4987179;28;20087;-70
2024/03/03 02:37:19;;;;;;;24.73;15.38;;;;;;;7.03;100.00;98764.75;4965085;28;20050;-70
2024/03/03 02:39:49;;;;;;;26.23;15.65;;;;;;;7.01;100.00;98806.09;4968916;28;20506;-72
2024/03/03 02:42:17;;;;;;;25.55;16.23;;;;;;;6.93;100.00;98834.63;4981614;28;20134;-71
2024/03/03 02:44:45;;;;;;;26.15;16.27;;;;;;;6.93;100.00;98819.69;4984001;28;20042;-71
2024/03/03 02:47:12;;;;;;;28.15;15.25;;;;;;;6.93;100.00;98797.78;4987028;28;20061;-68
2024/03/03 02:49:40;;;;;;;25.10;15.30;;;;;;;6.91;100.00;98799.69;4993753;28;20046;-68
2024/03/03 02:52:10;;;;;;;24.08;14.93;;;;;;;6.88;100.00;98807.75;4993688;28;20039;-69
2024/03/03 02:54:38;;;;;;;25.45;15.35;;;;;;;6.85;100.00;98813.16;5003366;28;20104;-71
2024/03/03 02:57:09;;;;;;;25.95;15.95;;;;;;;6.84;100.00;98814.09;4967279;28;20067;-69
2024/03/03 02:59:36;;;;;;;24.73;14.95;;;;;;;6.80;100.00;98823.09;4981027;28;20055;-71
2024/03/03 03:02:05;;;;;;;26.00;15.77;;;;;;;6.76;100.00;98827.72;4985359;28;20054;-68
2024/03/03 03:04:33;;;;;;;25.40;15.23;;;;;;;6.69;100.00;98821.94;4970785;28;20110;-68
2024/03/03 03:07:01;;;;;;;24.95;15.50;;;;;;;6.66;100.00;98819.47;4968992;28;21417;-71
2024/03/03 03:09:31;;;;;;;25.75;15.35;;;;;;;6.56;100.00;98807.78;4987890;28;20045;-69
2024/03/03 03:11:59;;;;;;;26.60;16.35;;;;;;;6.56;100.00;98815.66;5000278;28;20054;-69
2024/03/03 03:14:29;;;;;;;25.33;15.68;;;;;;;6.50;100.00;98810.72;4989756;28;20034;-68
2024/03/03 03:16:58;;;;;;;22.67;14.82;;;;;;;6.46;100.00;98803.09;4980093;28;20046;-69
2024/03/03 03:19:30;;;;;;;;;;;;;;;6.40;100.00;98820.06;4998204;28;20047;-70
2024/03/03 03:21:59;;;;;;;29.23;16.57;;;;;;;6.30;100.00;98818.84;4959460;28;19926;-70
2024/03/03 03:24:29;;;;;;;27.50;15.30;;;;;;;6.32;100.00;98823.09;4953854;28;20117;-70
2024/03/03 03:26:57;;;;;;;25.77;15.02;;;;;;;6.27;100.00;98822.53;4947533;28;20510;-70
2024/03/03 03:29:26;;;;;;;25.90;15.60;;;;;;;6.21;100.00;98806.22;4975473;28;20466;-70
2024/03/03 03:31:56;;;;;;;25.92;15.63;;;;;;;6.22;100.00;98805.31;4945194;28;20049;-70
2024/03/03 03:34:24;;;;;;;25.55;15.70;;;;;;;6.22;100.00;98811.41;4976560;28;20160;-69
2024/03/03 03:36:55;;;;;;;26.77;16.13;;;;;;;6.23;100.00;98812.25;4985368;28;20057;-68
2024/03/03 03:39:23;;;;;;;26.17;16.52;;;;;;;6.24;100.00;98819.22;4985722;28;20101;-70
2024/03/03 03:41:51;;;;;;;24.65;15.45;;;;;;;6.23;100.00;98809.63;4967771;28;20050;-70
2024/03/03 03:44:20;;;;;;;25.67;16.05;;;;;;;6.22;100.00;98824.56;4965427;28;20046;-70
2024/03/03 03:46:48;;;;;;;28.98;16.08;;;;;;;6.18;100.00;98819.53;4966743;28;20039;-71
2024/03/03 03:49:18;;;;;;;26.70;15.45;;;;;;;6.18;100.00;98811.66;4961576;28;20046;-70
2024/03/03 03:51:47;;;;;;;28.48;16.65;;;;;;;6.08;100.00;98816.56;4965829;28;20043;-70
2024/03/03 03:54:15;;;;;;;27.00;15.75;;;;;;;6.19;100.00;98843.09;4964318;28;21403;-70
2024/03/03 03:56:43;;;;;;;27.25;16.40;;;;;;;6.24;100.00;98813.97;4968675;28;20046;-70
2024/03/03 03:59:11;;;;;;;27.85;16.02;;;;;;;6.21;100.00;98808.84;4959272;28;20047;-68
2024/03/03 04:01:39;;;;;;;26.83;16.13;;;;;;;6.26;100.00;98827.88;4967763;28;20050;-69
2024/03/03 04:04:10;;;;;;;27.45;16.23;;;;;;;6.26;100.00;98812.09;4964179;28;20049;-68
2024/03/03 04:06:39;;;;;;;26.67;16.08;;;;;;;6.27;100.00;98814.66;4963514;28;20113;-69
2024/03/03 04:09:07;;;;;;;26.65;16.42;;;;;;;6.29;100.00;98820.66;4967037;28;20511;-70
2024/03/03 04:11:35;;;;;;;26.55;15.75;;;;;;;6.28;100.00;98820.75;4969802;28;20059;-68
2024/03/03 04:14:06;;;;;;;26.15;15.98;;;;;;;6.24;100.00;98799.03;4955204;28;20039;-70
2024/03/03 04:16:37;;;;;;;28.02;16.25;;;;;;;6.27;100.00;98817.28;4974300;28;20065;-70
2024/03/03 04:19:05;;;;;;;26.45;15.52;;;;;;;6.26;100.00;98831.34;4962509;28;20051;-68
2024/03/03 04:21:33;;;;;;;27.15;15.43;;;;;;;6.23;100.00;98823.63;4975317;28;20048;-69
2024/03/03 04:24:03;;;;;;;28.45;17.20;;;;;;;6.22;100.00;98816.66;4984337;28;20430;-69
2024/03/03 04:26:31;;;;;;;18.90;11.80;;;;;;;6.25;100.00;98827.03;4969681;28;20138;-69
2024/03/03 04:28:59;;;;;;;29.40;16.73;;;;;;;6.29;100.00;98825.06;4946609;28;20508;-68
2024/03/03 04:31:26;;;;;;;28.58;17.08;;;;;;;6.26;100.00;98823.47;4950420;28;20054;-70
2024/03/03 04:33:54;;;;;;;25.65;15.63;;;;;;;6.29;100.00;98817.19;4960117;28;20101;-70
2024/03/03 04:36:22;;;;;;;28.40;16.38;;;;;;;6.29;100.00;98814.56;4972983;28;20077;-70
2024/03/03 04:38:52;;;;;;;26.85;16.92;;;;;;;6.30;100.00;98808.34;4973629;28;20081;-73
2024/03/03 04:41:22;;;;;;;26.00;15.80;;;;;;;6.27;100.00;98811.16;4995072;28;20046;-70
2024/03/03 04:43:50;;;;;;;25.75;14.82;;;;;;;6.32;100.00;98812.59;5008010;28;20070;-69
2024/03/03 04:46:19;;;;;;;29.63;16.80;;;;;;;6.32;100.00;98806.47;4991270;28;20039;-67
2024/03/03 04:48:50;;;;;;;26.25;16.45;;;;;;;6.33;100.00;98816.06;4999435;28;20059;-70
2024/03/03 04:51:18;;;;;;;27.67;16.02;;;;;;;6.28;100.00;98807.59;4988692;28;20046;-69
2024/03/03 04:53:46;;;;;;;23.55;14.93;;;;;;;6.29;100.00;98801.41;4989764;28;20039;-68
2024/03/03 04:56:17;;;;;;;26.50;16.27;;;;;;;6.26;100.00;98806.84;4990621;28;20138;-68
2024/03/03 04:58:48;;;;;;;24.63;15.80;;;;;;;6.24;100.00;98806.91;4996179;28;20055;-71
2024/03/03 05:01:17;;;;;;;29.75;16.85;;;;;;;6.24;100.00;98811.31;4986562;28;20122;-72
2024/03/03 05:03:45;;;;;;;25.90;16.77;;;;;;;6.24;100.00;98809.56;4985110;28;20071;-69
2024/03/03 05:06:14;;;;;;;26.92;15.82;;;;;;;6.22;100.00;98813.19;4985136;28;20078;-68
2024/03/03 05:08:42;;;;;;;25.92;15.25;;;;;;;6.19;100.00;98810.72;4967335;28;20042;-70
2024/03/03 05:11:10;;;;;;;27.50;16.42;;;;;;;6.16;100.00;98808.25;4975355;28;20929;-69
2024/03/03 05:13:40;;;;;;;27.60;16.63;;;;;;;6.16;100.00;98801.22;4960125;28;20042;-70
2024/03/03 05:16:10;;;;;;;;;;;;;;;6.19;100.00;98800.22;4988293;28;20054;-72
2024/03/03 05:18:38;;;;;;;27.13;17.03;;;;;;;6.19;100.00;98803.69;4972639;28;19936;-70
2024/03/03 05:21:06;;;;;;;27.88;16.45;;;;;;;6.15;100.00;98811.81;4958970;28;20058;-71
2024/03/03 05:23:35;;;;;;;26.45;16.95;;;;;;;6.16;100.00;98813.50;4990387;28;20061;-71
2024/03/03 05:26:05;;;;;;;27.90;16.60;;;;;;;6.11;100.00;98808.53;4979044;28;20042;-70
2024/03/03 05:28:34;;;;;;;27.77;17.27;;;;;;;6.08;100.00;98818.34;4981260;28;20426;-71
2024/03/03 05:31:05;;;;;;;27.10;16.23;;;;;;;6.08;100.00;98823.59;4969780;28;20503;-71
2024/03/03 05:33:38;;;;;;;28.98;17.05;;;;;;;6.08;100.00;98823.59;4976671;28;20149;-72
2024/03/03 05:36:06;;;;;;;25.90;16.38;;;;;;;6.07;100.00;98830.63;4987633;28;20046;-68
2024/03/03 05:38:35;;;;;;;30.13;16.70;;;;;;;6.11;100.00;98831.31;4967078;28;20051;-71
2024/03/03 05:41:03;;;;;;;25.88;15.80;;;;;;;6.14;100.00;98821.47;4969579;28;20054;-72
2024/03/03 05:43:31;;;;;;;30.75;17.35;;;;;;;6.14;100.00;98825.91;4972170;28;20057;-69
2024/03/03 05:45:59;;;;;;;27.08;16.90;;;;;;;6.16;100.00;98821.38;4967515;28;20062;-69
2024/03/03 05:48:28;;;;;;;30.58;17.52;;;;;;;6.10;100.00;98811.22;4981755;28;22038;-70
2024/03/03 05:50:58;;;;;;;26.55;17.10;;;;;;;6.15;100.00;98820.53;4985769;28;20050;-68
2024/03/03 05:53:26;;;;;;;26.88;17.15;;;;;;;6.18;100.00;98824.78;4984154;28;20851;-70
2024/03/03 05:55:54;;;;;;;24.00;16.35;;;;;;;6.16;100.00;98822.25;4969603;28;20177;-71
2024/03/03 05:58:23;;;;;;;27.95;16.98;;;;;;;6.18;100.00;98838.78;4979804;28;20057;-70
2024/03/03 06:00:51;;;;;;;24.13;15.90;;;;;;;6.19;100.00;98829.13;4982643;28;20042;-70
2024/03/03 06:03:19;;;;;;;29.95;17.17;;;;;;;6.26;100.00;98833.97;4967826;28;20535;-71
2024/03/03 06:05:47;;;;;;;25.42;15.85;;;;;;;6.25;100.00;98828.81;4984633;28;20050;-71
2024/03/03 06:08:17;;;;;;;26.70;16.80;;;;;;;6.33;100.00;98839.72;4968258;28;20050;-70
2024/03/03 06:10:45;;;;;;;25.02;16.00;;;;;;;6.31;100.00;98839.81;4981190;28;20707;-71
2024/03/03 06:13:13;;;;;;;25.30;16.55;;;;;;;6.36;100.00;98834.31;4967336;28;20521;-70
2024/03/03 06:15:43;;;;;;;26.98;17.10;;;;;;;6.40;100.00;98835.84;4967115;28;20051;-69
2024/03/03 06:18:11;;;;;;;25.75;16.63;;;;;;;6.40;100.00;98830.59;4984706;28;20046;-70
2024/03/03 06:20:39;;;;;;;26.95;16.73;;;;;;;6.41;100.00;98832.28;4990570;28;20109;-68
2024/03/03 06:23:08;;;;;;;26.80;17.08;;;;;;;6.38;100.00;98819.31;4991672;28;20049;-68
2024/03/03 06:25:38;;;;;;;25.67;16.02;;;;;;;6.45;100.00;98831.19;4992488;28;20048;-67
2024/03/03 06:28:09;;;;;;;24.20;15.80;;;;;;;6.45;100.00;98833.81;4958055;28;20058;-69
2024/03/03 06:30:39;;;;;;;25.40;15.23;;;;;;;6.50;100.00;98831.78;4961982;28;20146;-68
2024/03/03 06:33:10;;;;;;;23.55;15.70;;;;;;;6.49;100.00;98826.59;4969588;28;20062;-71
2024/03/03 06:35:39;;;;;;;24.63;15.48;;;;;;;6.51;100.00;98822.94;4972284;28;20042;-69
2024/03/03 06:38:07;;;;;;;25.38;16.50;;;;;;;6.53;100.00;98826.34;4956764;28;20598;-68
2024/03/03 06:40:44;;;;;;;26.33;15.98;;;;;;;6.55;100.00;98826.25;4960998;28;20043;-72
2024/03/03 06:43:20;;;;;;;25.33;15.27;;;;;;;6.57;100.00;98837.56;4985101;28;20042;-69
2024/03/03 06:45:49;;;;;;;26.55;16.48;;;;;;;6.57;100.00;98830.50;4971764;28;20046;-73
2024/03/03 06:48:19;;;;;;;26.75;16.30;;;;;;;6.61;100.00;98826.75;4985591;28;20053;-69
2024/03/03 06:50:48;;;;;;;26.25;15.95;;;;;;;6.66;100.00;98829.13;4968094;28;20546;-71
2024/03/03 06:53:16;;;;;;;26.00;16.30;;;;;;;6.64;100.00;98821.31;4984961;28;20369;-68
2024/03/03 06:55:46;;;;;;;26.77;16.60;;;;;;;6.77;100.00;98831.19;4971470;28;20088;-70
2024/03/03 06:58:13;;;;;;;25.85;16.83;;;;;;;6.80;100.00;98823.09;4982174;28;20158;-69
2024/03/03 07:00:42;;;;;;;24.98;15.52;;;;;;;6.81;100.00;98819.53;4966866;28;20396;-70
2024/03/03 07:03:38;;;;;;;25.02;16.05;;;;;;;6.88;100.00;98831.41;4969011;28;20516;-71
2024/03/03 07:06:06;;;;;;;31.83;18.00;;;;;;;6.94;100.00;98829.28;4966421;28;20440;-68
2024/03/03 07:08:36;;;;;;;25.52;15.75;;;;;;;7.03;100.00;98828.75;4968168;28;20528;-67
2024/03/03 07:11:05;;;;;;;26.58;16.25;;;;;;;7.15;100.00;98828.97;4966412;28;20078;-70
2024/03/03 07:13:34;;;;;;;20.83;12.10;;;;;;;7.22;100.00;98831.19;4968448;28;20616;-71
2024/03/03 07:16:04;;;;;;;23.05;15.48;;;;;;;7.33;100.00;98828.75;4983263;28;20627;-69
2024/03/03 07:18:33;;;;;;;27.80;15.95;;;;;;;7.44;100.00;98829.91;4967024;28;20043;-69
2024/03/03 07:21:01;;;;;;;24.67;14.88;;;;;;;7.53;100.00;98838.13;4964724;28;20054;-71
2024/03/03 07:23:31;;;;;;;25.13;14.98;;;;;;;7.58;100.00;98833.41;4965898;28;21665;-70
2024/03/03 07:26:01;;;;;;;24.63;15.05;;;;;;;7.64;100.00;98830.44;4956636;28;20423;-71
2024/03/03 07:28:32;;;;;;;26.50;15.77;;;;;;;7.72;100.00;98820.25;4964979;28;20043;-69
2024/03/03 07:31:00;;;;;;;23.77;14.80;;;;;;;7.86;100.00;98827.34;4962287;28;20062;-71
2024/03/03 07:33:28;;;;;;;22.85;15.02;;;;;;;7.96;100.00;98830.28;4981144;28;20043;-69
2024/03/03 07:35:56;;;;;;;21.15;14.40;;;;;;;8.09;100.00;98833.84;4960701;28;20046;-69
2024/03/03 07:38:24;;;;;;;22.75;14.18;;;;;;;8.23;100.00;98825.94;4967155;28;20122;-67
2024/03/03 07:40:52;;;;;;;23.13;15.25;;;;;;;8.38;100.00;98829.44;4978864;28;20047;-69
2024/03/03 07:43:20;;;;;;;21.48;13.93;;;;;;;8.56;100.00;98830.91;4966389;28;20533;-70
2024/03/03 07:45:50;;;;;;;22.63;14.25;;;;;;;8.79;100.00;98843.50;4976479;28;20126;-69
2024/03/03 07:48:18;;;;;;;26.55;15.02;;;;;;;8.76;100.00;98827.84;4988279;28;20069;-66
2024/03/03 07:50:46;;;;;;;21.42;14.07;;;;;;;8.94;100.00;98843.44;5000011;28;20108;-68
2024/03/03 07:53:16;;;;;;;20.13;13.77;;;;;;;9.05;100.00;98838.31;4979602;28;20053;-69
2024/03/03 07:55:44;;;;;;;22.40;13.95;;;;;;;9.14;100.00;98841.19;4986185;28;20526;-71
2024/03/03 07:58:12;;;;;;;19.95;13.95;;;;;;;9.28;100.00;98848.22;4966383;28;20042;-70
2024/03/03 08:00:41;;;;;;;21.77;13.48;;;;;;;9.40;100.00;98850.03;4961852;28;20050;-71
2024/03/03 08:03:12;;;;;;;21.20;13.52;;;;;;;9.57;100.00;98850.69;4966148;28;20595;-70
2024/03/03 08:05:41;;;;;;;19.23;13.70;;;;;;;9.74;100.00;98834.56;4966145;28;20057;-69
2024/03/03 08:08:10;;;;;;;20.75;13.85;;;;;;;10.04;100.00;98837.72;4982185;28;20047;-71
2024/03/03 08:10:40;;;;;;;20.75;14.38;;;;;;;10.19;100.00;98826.09;4945569;28;20391;-72
2024/03/03 08:13:09;;;;;;;20.63;13.70;;;;;;;10.30;100.00;98835.06;4980188;28;20054;-70
2024/03/03 08:15:37;;;;;;;23.48;13.48;;;;;;;10.30;100.00;98827.16;4965590;28;20050;-71
2024/03/03 08:18:05;;;;;;;21.35;13.68;;;;;;;10.25;100.00;98829.25;4973619;28;20213;-70
2024/03/03 08:20:35;;;;;;;20.35;13.50;;;;;;;10.26;100.00;98825.66;4960571;28;20438;-69
2024/03/03 08:23:03;;;;;;;21.90;14.13;;;;;;;10.30;100.00;98828.00;4965221;28;20129;-69
2024/03/03 08:25:32;;;;;;;20.35;13.75;;;;;;;10.26;100.00;98833.59;4969872;28;20720;-69
2024/03/03 08:28:02;;;;;;;20.10;13.18;;;;;;;10.18;100.00;98829.72;4985999;28;20130;-73
2024/03/03 08:30:30;;;;;;;21.15;13.32;;;;;;;10.13;100.00;98817.72;4961980;28;20054;-70
2024/03/03 08:32:58;;;;;;;20.40;13.70;;;;;;;10.29;100.00;98817.50;4966523;28;20105;-71
2024/03/03 08:35:26;;;;;;;21.52;13.55;;;;;;;10.35;100.00;98823.22;4968175;28;20134;-71
2024/03/03 08:37:56;;;;;;;20.83;13.02;;;;;;;10.27;100.00;98809.69;4971421;28;20042;-68
2024/03/03 08:40:25;;;;;;;22.20;13.10;;;;;;;10.41;100.00;98814.84;4975821;28;20484;-68
2024/03/03 08:42:53;;;;;;;21.50;14.05;;;;;;;10.46;100.00;98818.00;4963530;28;20057;-71
2024/03/03 08:45:21;;;;;;;19.80;13.60;;;;;;;10.47;100.00;98819.69;4981075;28;20074;-72
2024/03/03 08:47:50;;;;;;;22.35;14.00;;;;;;;10.46;100.00;98803.94;4985159;28;20046;-70
2024/03/03 08:50:21;;;;;;;21.15;13.82;;;;;;;10.50;100.00;98813.34;4972326;28;20515;-71
2024/03/03 08:52:49;;;;;;;19.63;13.40;;;;;;;10.45;100.00;98812.81;4967729;28;20038;-71
2024/03/03 08:55:19;;;;;;;22.73;13.82;;;;;;;10.40;100.00;98805.19;4960000;28;20128;-68
2024/03/03 08:57:48;;;;;;;22.42;14.65;;;;;;;10.40;100.00;98801.72;4966563;28;20050;-70
2024/03/03 09:00:17;;;;;;;20.45;14.27;;;;;;;10.38;100.00;98801.00;4965699;28;20114;-71
2024/03/03 09:02:49;;;;;;;24.73;14.82;;;;;;;10.41;100.00;98808.69;4971999;28;20039;-71
2024/03/03 09:05:17;;;;;;;18.60;13.57;;;;;;;10.52;100.00;98819.38;4988794;28;20037;-69
2024/03/03 09:07:46;;;;;;;23.05;14.15;;;;;;;10.49;100.00;98807.22;4985334;28;20112;-72
2024/03/03 09:10:14;;;;;;;18.50;13.18;;;;;;;10.62;100.00;98807.16;4947189;28;20367;-70
2024/03/03 09:12:44;;;;;;;21.73;14.32;;;;;;;10.67;100.00;98810.34;4980542;28;20062;-70
2024/03/03 09:15:13;;;;;;;22.67;14.80;;;;;;;10.71;100.00;98811.78;4968913;28;20125;-69
2024/03/03 09:17:41;;;;;;;23.55;14.43;;;;;;;10.73;100.00;98809.03;4967106;28;20488;-69
2024/03/03 09:20:09;;;;;;;22.95;14.35;;;;;;;10.72;100.00;98815.28;4966431;28;20622;-72
2024/03/03 09:22:39;;;;;;;21.95;14.70;;;;;;;10.71;100.00;98806.47;4970116;28;20038;-69
2024/03/03 09:25:12;;;;;;;21.73;14.60;;;;;;;10.68;100.00;98811.19;4976977;28;20043;-71
2024/03/03 09:27:41;;;;;;;23.88;15.10;;;;;;;10.54;100.00;98786.56;4989638;28;20047;-70
2024/03/03 09:30:14;;;;;;;24.02;15.80;;;;;;;10.70;100.00;98803.97;4999427;28;20546;-71
2024/03/03 09:32:42;;;;;;;20.75;14.48;;;;;;;10.77;100.00;98806.06;5002273;28;20046;-68
2024/03/03 09:35:11;;;;;;;21.83;15.02;;;;;;;10.89;100.00;98813.09;4999163;28;20039;-71
2024/03/03 09:37:39;;;;;;;23.63;14.88;;;;;;;11.03;100.00;98805.94;4982774;28;20046;-71
2024/03/03 09:40:14;;;;;;;20.98;13.73;;;;;;;11.16;100.00;98796.97;4970003;28;20425;-70
2024/03/03 09:42:45;;;;;;;24.73;14.95;;;;;;;11.28;100.00;98794.38;4970736;28;20058;-69
2024/03/03 09:45:14;;;;;;;21.75;15.05;;;;;;;11.29;100.00;98782.81;4991564;28;20051;-71
2024/03/03 09:47:43;;;;;;;20.92;14.38;;;;;;;11.28;100.00;98791.72;4974961;28;20124;-69
2024/03/03 09:50:12;;;;;;;20.75;14.63;;;;;;;11.33;100.00;98786.91;4965894;28;20045;-70
2024/03/03 09:52:42;;;;;;;21.08;14.02;;;;;;;11.31;100.00;98773.78;4968979;28;20054;-70
2024/03/03 09:55:11;;;;;;;22.45;14.73;;;;;;;11.31;100.00;98779.09;4983366;28;20450;-70
2024/03/03 09:57:39;;;;;;;21.98;14.85;;;;;;;11.34;100.00;98775.34;4980630;28;20069;-71
2024/03/03 10:00:08;;;;;;;22.85;14.82;;;;;;;11.43;100.00;98767.53;4960512;28;20050;-68
2024/03/03 10:02:43;;;;;;;22.85;14.60;;;;;;;11.52;100.00;98768.63;4970134;28;20609;-71
2024/03/03 10:05:14;;;;;;;22.67;14.45;;;;;;;11.62;100.00;98768.78;4973467;28;20043;-70
2024/03/03 10:07:48;;;;;;;22.65;15.40;;;;;;;11.76;100.00;98771.25;4966923;28;20074;-69
2024/03/03 10:10:19;;;;;;;22.50;14.55;;;;;;;11.85;100.00;98773.19;4965262;28;20766;-71
2024/03/03 10:12:48;;;;;;;22.10;14.48;;;;;;;11.91;100.00;98768.25;4985032;28;20070;-70
2024/03/03 10:15:18;;;;;;;24.42;15.40;;;;;;;11.96;100.00;98770.56;4987092;28;20047;-70
2024/03/03 10:17:47;;;;;;;22.15;15.27;;;;;;;12.01;100.00;98776.31;5000795;28;20058;-70
2024/03/03 10:20:16;;;;;;;22.43;15.27;;;;;;;11.99;100.00;98772.94;4969024;28;20054;-70
2024/03/03 10:22:46;;;;;;;20.33;14.18;;;;;;;12.01;100.00;98768.38;4970318;28;20050;-70
2024/03/03 10:25:16;;;;;;;22.02;14.68;;;;;;;12.13;100.00;98766.53;4976133;28;20157;-71
2024/03/03 10:27:50;;;;;;;21.85;14.73;;;;;;;12.25;100.00;98761.13;4964929;28;20066;-72
2024/03/03 10:30:22;;;;;;;19.20;13.13;;;;;;;12.40;100.00;98766.19;4965639;28;20051;-68
2024/03/03 10:33:04;;;;;;;24.02;14.23;;;;;;;12.51;100.00;98769.66;4981669;28;20051;-70
2024/03/03 10:35:32;;;;;;;21.00;13.98;;;;;;;12.60;100.00;98765.41;4964973;28;20463;-69
2024/03/03 10:38:01;;;;;;;20.52;13.85;;;;;;;12.65;100.00;98763.22;4984474;28;20411;-71
2024/03/03 10:40:31;;;;;;;18.10;13.10;;;;;;;12.77;100.00;98767.53;4979121;28;20042;-69
2024/03/03 10:42:59;;;;;;;21.03;14.23;;;;;;;12.80;100.00;98754.00;4948282;28;20043;-70
2024/03/03 10:45:28;;;;;;;19.20;13.77;;;;;;;12.85;100.00;98754.47;4964175;28;20126;-69
2024/03/03 10:47:58;;;;;;;18.80;13.20;;;;;;;12.89;100.00;98745.28;4981482;28;20484;-68
2024/03/03 10:50:27;;;;;;;;;;;;;;;13.02;100.00;98746.94;4962885;28;20160;-68
2024/03/03 10:52:56;;;;;;;20.10;12.75;;;;;;;13.12;100.00;98750.50;4983194;28;19921;-69
2024/03/03 10:55:25;;;;;;;22.25;13.60;;;;;;;13.22;100.00;98749.63;4967951;28;20129;-71
2024/03/03 10:57:56;;;;;;;19.42;13.40;;;;;;;13.23;100.00;98748.66;4984666;28;20732;-69
2024/03/03 11:00:28;;;;;;;20.65;13.45;;;;;;;13.20;100.00;98737.47;4954620;28;20074;-70
2024/03/03 11:02:59;;;;;;;19.35;13.60;;;;;;;13.21;100.00;98736.47;4963843;28;20043;-70
2024/03/03 11:05:28;;;;;;;20.40;13.60;;;;;;;13.34;100.00;98737.13;4965063;28;20054;-69
2024/03/03 11:08:01;;;;;;;18.02;13.45;;;;;;;13.47;100.00;98732.47;4954424;28;20035;-72
2024/03/03 11:10:29;;;;;;;21.85;14.23;;;;;;;13.50;99.29;98724.22;4967382;28;20050;-68
2024/03/03 11:12:59;;;;;;;19.88;12.88;;;;;;;13.58;100.00;98719.06;4961516;28;20062;-70
2024/03/03 11:15:27;;;;;;;19.83;13.13;;;;;;;13.70;98.10;98715.34;4967681;28;20482;-71
2024/03/03 11:18:00;;;;;;;19.00;13.10;;;;;;;13.80;98.32;98706.59;4965754;28;20055;-70
2024/03/03 11:20:35;;;;;;;21.23;13.68;;;;;;;13.90;96.39;98705.66;4941599;28;20423;-68
2024/03/03 11:23:14;;;;;;;18.63;12.77;;;;;;;14.01;97.93;98699.38;4963937;28;20156;-70
2024/03/03 11:25:59;;;;;;;19.33;13.48;;;;;;;14.03;99.62;98684.97;4964589;28;20066;-71